Time;durP1;ratioP1;P1;durP2;ratioP2;P2;SDS_P1;SDS_P2;PMS_P1;PMS_P2;Temp;Humidity;BMP_temperature;BMP_pressure;BME280_temperature;BME280_humidity;BME280_pressure;Samples;Min_cycle;Max_cycle;Signal;HPM_P1;HPM_P2
2023/01/29 00:02:12;;;;;;;20.33;9.23;;;;;;;-146.73;100.00;56421.06;6150092;23;20346;-92
2023/01/29 00:04:38;;;;;;;21.38;10.13;;;;;;;-146.73;100.00;56421.06;6149359;23;20060;-90
2023/01/29 00:07:03;;;;;;;21.55;10.18;;;;;;;-146.73;100.00;56421.06;6179589;23;20021;-93
2023/01/29 00:09:30;;;;;;;21.70;9.90;;;;;;;-146.73;100.00;56421.06;6153177;23;20451;-93
2023/01/29 00:11:55;;;;;;;21.98;10.75;;;;;;;-146.73;100.00;56421.06;6152563;23;20514;-93
2023/01/29 00:14:21;;;;;;;24.27;10.15;;;;;;;-146.73;100.00;56421.06;6174598;23;20040;-92
2023/01/29 00:16:46;;;;;;;20.85;9.63;;;;;;;-146.73;100.00;56421.06;6151168;23;20482;-93
2023/01/29 00:19:12;;;;;;;19.90;8.45;;;;;;;-146.73;100.00;56421.06;6152342;23;20343;-94
2023/01/29 00:21:37;;;;;;;19.73;8.80;;;;;;;-146.73;100.00;56421.06;6153980;23;20004;-93
2023/01/29 00:24:03;;;;;;;19.10;8.77;;;;;;;-146.73;100.00;56421.06;6176911;23;20071;-94
2023/01/29 00:26:28;;;;;;;20.25;9.43;;;;;;;-146.73;100.00;56421.06;6152722;23;20301;-93
2023/01/29 00:28:55;;;;;;;20.83;9.35;;;;;;;-146.73;100.00;56421.06;6152241;23;20036;-94
2023/01/29 00:31:24;;;;;;;20.67;9.23;;;;;;;-146.73;100.00;56421.06;6177627;23;20071;-94
2023/01/29 00:33:53;;;;;;;22.67;10.32;;;;;;;-146.73;100.00;56421.06;6150933;23;20044;-92
2023/01/29 00:36:23;;;;;;;20.48;9.48;;;;;;;-146.73;100.00;56421.06;6178796;23;20289;-93
2023/01/29 00:39:01;;;;;;;18.65;8.90;;;;;;;-146.73;100.00;56421.06;6151201;23;20009;-93
2023/01/29 00:46:56;;;;;;;18.40;8.52;;;;;;;-146.73;100.00;56421.06;6176020;23;20060;-93
2023/01/29 00:49:22;;;;;;;16.45;7.57;;;;;;;-146.73;100.00;56421.06;6154179;23;20009;-93
2023/01/29 00:52:22;;;;;;;16.58;7.65;;;;;;;-146.73;100.00;56421.06;6155607;23;20012;-93
2023/01/29 00:54:33;;;;;;;14.73;7.40;;;;;;;-146.73;100.00;56421.06;6179356;23;20063;-94
2023/01/29 00:57:00;;;;;;;15.35;7.70;;;;;;;-146.73;100.00;56421.06;6154405;23;20132;-94
2023/01/29 00:59:25;;;;;;;15.45;8.45;;;;;;;-146.73;100.00;56421.06;6154803;23;20009;-93
2023/01/29 01:04:35;;;;;;;21.27;9.88;;;;;;;-146.73;100.00;56421.06;6179793;23;20030;-94
2023/01/29 01:07:01;;;;;;;20.17;9.98;;;;;;;-146.73;100.00;56421.06;6180189;23;20009;-94
2023/01/29 01:12:10;;;;;;;16.05;8.40;;;;;;;-146.73;100.00;56421.06;6181040;23;20099;-94
2023/01/29 01:14:36;;;;;;;17.77;8.20;;;;;;;-146.73;100.00;56421.06;6155351;23;20021;-94
2023/01/29 01:17:01;;;;;;;17.00;9.32;;;;;;;-146.73;100.00;56421.06;6154056;23;20079;-91
2023/01/29 01:19:26;;;;;;;18.05;9.13;;;;;;;-146.73;100.00;56421.06;6180031;23;20011;-94
2023/01/29 01:21:52;;;;;;;19.42;8.60;;;;;;;-146.73;100.00;56421.06;6181941;23;20040;-93
2023/01/29 01:24:19;;;;;;;17.48;8.10;;;;;;;-146.73;100.00;56421.06;6181457;23;20005;-94
2023/01/29 01:26:44;;;;;;;15.43;7.40;;;;;;;-146.73;100.00;56421.06;6155091;23;20036;-94
2023/01/29 01:29:10;;;;;;;13.13;6.53;;;;;;;-146.73;100.00;56421.06;6154543;23;20013;-94
2023/01/29 01:31:35;;;;;;;11.48;5.57;;;;;;;-146.73;100.00;56421.06;6155489;23;20760;-93
2023/01/29 01:34:01;;;;;;;10.02;4.47;;;;;;;-146.73;100.00;56421.06;6153591;23;20020;-94
2023/01/29 01:36:26;;;;;;;11.05;4.57;;;;;;;-146.73;100.00;56421.06;6153276;23;20011;-94
2023/01/29 01:38:53;;;;;;;10.25;4.28;;;;;;;-146.73;100.00;56421.06;6178108;23;20028;-93
2023/01/29 01:41:23;;;;;;;9.20;3.70;;;;;;;-146.73;100.00;56421.06;6153712;23;20001;-94
2023/01/29 01:43:56;;;;;;;8.63;3.58;;;;;;;-146.73;100.00;56421.06;6178409;23;20005;-94
2023/01/29 01:46:23;;;;;;;8.80;3.50;;;;;;;-146.73;100.00;56421.06;6152648;23;20055;-94
2023/01/29 01:48:58;;;;;;;9.02;3.35;;;;;;;-146.73;100.00;56421.06;6152365;23;20111;-93
2023/01/29 01:51:27;;;;;;;9.73;3.90;;;;;;;-146.73;100.00;56421.06;6152085;23;20005;-93
2023/01/29 01:54:02;;;;;;;8.77;3.47;;;;;;;-146.73;100.00;56421.06;6150935;23;20024;-94
2023/01/29 01:56:37;;;;;;;8.80;3.60;;;;;;;-146.73;100.00;56421.06;6153344;23;20044;-94
2023/01/29 01:59:07;;;;;;;8.93;3.20;;;;;;;-146.73;100.00;56421.06;6179574;23;20036;-94
2023/01/29 02:01:33;;;;;;;8.55;3.22;;;;;;;-146.73;100.00;56421.06;6153166;23;20264;-94
2023/01/29 02:09:40;;;;;;;7.55;2.50;;;;;;;-146.73;100.00;56421.06;6179754;23;20084;-94
2023/01/29 02:12:09;;;;;;;6.65;2.13;;;;;;;-146.73;100.00;56421.06;6153887;23;20036;-94
2023/01/29 02:14:39;;;;;;;6.60;2.40;;;;;;;-146.73;100.00;56421.06;6153572;23;20031;-95
2023/01/29 02:17:11;;;;;;;6.18;2.08;;;;;;;-146.73;100.00;56421.06;6154059;23;20020;-95
2023/01/29 02:19:55;;;;;;;6.90;2.27;;;;;;;-146.73;100.00;56421.06;6178578;23;20483;-95
2023/01/29 02:22:30;;;;;;;6.03;2.03;;;;;;;-146.73;100.00;56421.06;6156683;23;20234;-94
2023/01/29 02:25:21;;;;;;;6.47;2.10;;;;;;;-146.73;100.00;56421.06;6154168;23;20021;-94
2023/01/29 02:28:17;;;;;;;6.53;2.03;;;;;;;-146.73;100.00;56421.06;6153006;23;20174;-95
2023/01/29 02:31:35;;;;;;;7.03;2.30;;;;;;;-146.73;100.00;56421.06;6154478;23;20021;-95
2023/01/29 02:34:27;;;;;;;7.20;2.53;;;;;;;-146.73;100.00;56421.06;6007409;23;20092;-95
2023/01/29 02:37:13;;;;;;;8.10;3.10;;;;;;;-146.73;100.00;56421.06;6009285;23;20027;-95
2023/01/29 02:39:51;;;;;;;9.85;3.80;;;;;;;-146.73;100.00;56421.06;6031787;23;20079;-94
2023/01/29 02:42:28;;;;;;;10.77;4.40;;;;;;;-146.73;100.00;56421.06;6032310;23;20041;-95
2023/01/29 02:45:17;;;;;;;13.45;5.03;;;;;;;-146.73;100.00;56421.06;6006113;23;20011;-94
2023/01/29 02:47:56;;;;;;;13.75;5.47;;;;;;;-146.73;100.00;56421.06;6030428;23;20411;-94
2023/01/29 02:50:33;;;;;;;14.52;5.90;;;;;;;-146.73;100.00;56421.06;6007000;23;20022;-94
2023/01/29 02:53:10;;;;;;;11.00;4.70;;;;;;;-146.73;100.00;56421.06;6031802;23;20090;-94
2023/01/29 02:55:50;;;;;;;11.55;5.18;;;;;;;-146.73;100.00;56421.06;6030322;23;20019;-94
2023/01/29 02:58:26;;;;;;;13.77;5.32;;;;;;;-146.73;100.00;56421.06;6006921;23;20063;-95
2023/01/29 03:03:41;;;;;;;14.05;5.88;;;;;;;-146.73;100.00;56421.06;6188840;22;20035;-90
2023/01/29 03:06:19;;;;;;;15.77;6.15;;;;;;;-146.73;100.00;56421.06;6181015;23;20067;-93
2023/01/29 03:09:10;;;;;;;15.43;6.82;;;;;;;-146.73;100.00;56421.06;6184641;23;20021;-92
2023/01/29 03:11:41;;;;;;;15.23;6.28;;;;;;;-146.73;100.00;56421.06;6183472;23;20030;-92
2023/01/29 03:14:13;;;;;;;13.05;5.78;;;;;;;-146.73;100.00;56421.06;6184069;23;20000;-92
2023/01/29 03:16:48;;;;;;;11.77;5.40;;;;;;;-146.73;100.00;56421.06;6185363;23;20062;-93
2023/01/29 03:19:35;;;;;;;11.23;4.28;;;;;;;-146.73;100.00;56421.06;6185826;23;20008;-93
2023/01/29 03:22:03;;;;;;;9.10;3.65;;;;;;;-146.73;100.00;56421.06;6185933;23;20016;-92
2023/01/29 03:33:48;;;;;;;10.05;3.72;;;;;;;-146.73;100.00;56421.06;6211755;23;20057;-93
2023/01/29 03:36:21;;;;;;;9.07;3.17;;;;;;;-146.73;100.00;56421.06;6184039;23;20012;-93
2023/01/29 03:38:47;;;;;;;8.80;3.53;;;;;;;-146.73;100.00;56421.06;6184049;23;20050;-92
2023/01/29 03:41:31;;;;;;;9.38;3.35;;;;;;;-146.73;100.00;56421.06;6182307;23;20717;-93
2023/01/29 03:44:02;;;;;;;;;;;;;;;-146.73;100.00;56421.06;6180975;23;20015;-93
2023/01/29 03:46:41;;;;;;;8.23;3.30;;;;;;;-146.73;100.00;56421.06;6180526;23;19943;-93
2023/01/29 03:49:31;;;;;;;10.18;3.53;;;;;;;-146.73;100.00;56421.06;6180357;23;20016;-93
2023/01/29 03:52:07;;;;;;;11.18;3.78;;;;;;;-146.73;100.00;56421.06;6181156;23;20055;-92
2023/01/29 03:55:24;;;;;;;8.88;3.53;;;;;;;-146.73;100.00;56421.06;6181693;23;20036;-92
2023/01/29 03:58:08;;;;;;;9.73;3.65;;;;;;;-146.73;100.00;56421.06;6060297;23;20017;-93
2023/01/29 04:00:39;;;;;;;9.85;3.08;;;;;;;-146.73;100.00;56421.06;6037353;23;20011;-92
2023/01/29 04:03:11;;;;;;;9.38;3.47;;;;;;;-146.73;100.00;56421.06;6036364;23;20415;-93
2023/01/29 04:06:04;;;;;;;9.32;3.38;;;;;;;-146.73;100.00;56421.06;6060946;23;20019;-93
2023/01/29 04:08:33;;;;;;;11.07;3.00;;;;;;;-146.73;100.00;56421.06;6061100;23;20113;-93
2023/01/29 04:11:05;;;;;;;8.70;3.17;;;;;;;-146.73;100.00;56421.06;6034284;23;20153;-91
2023/01/29 04:13:32;;;;;;;8.73;3.08;;;;;;;-146.73;100.00;56421.06;6058190;23;20089;-91
2023/01/29 04:16:00;;;;;;;8.73;2.97;;;;;;;-146.73;100.00;56421.06;6057933;23;20017;-91
2023/01/29 04:18:25;;;;;;;9.57;3.30;;;;;;;-146.73;100.00;56421.06;6058970;23;20433;-91
2023/01/29 04:20:52;;;;;;;10.60;4.00;;;;;;;-146.73;100.00;56421.06;6035180;23;20018;-93
2023/01/29 04:23:26;;;;;;;12.05;4.13;;;;;;;-146.73;100.00;56421.06;6035316;23;20014;-92
2023/01/29 04:26:16;;;;;;;10.40;4.03;;;;;;;-146.73;100.00;56421.06;6030957;23;20440;-91
2023/01/29 04:29:05;;;;;;;10.00;3.50;;;;;;;-146.73;100.00;56421.06;6015814;23;20027;-91
2023/01/29 04:31:44;;;;;;;9.90;3.45;;;;;;;-146.73;100.00;56421.06;6018636;23;20429;-92
2023/01/29 04:34:25;;;;;;;10.48;4.05;;;;;;;-146.73;100.00;56421.06;6128066;23;20020;-92
2023/01/29 04:36:56;;;;;;;9.07;3.22;;;;;;;-146.73;100.00;56421.06;6180712;23;20465;-92
2023/01/29 04:39:30;;;;;;;9.90;3.10;;;;;;;-146.73;100.00;56421.06;6180686;23;20016;-91
2023/01/29 04:42:31;;;;;;;11.77;3.60;;;;;;;-146.73;100.00;56421.06;6181392;23;20019;-91
2023/01/29 04:45:12;;;;;;;9.30;3.33;;;;;;;-146.73;100.00;56421.06;6185332;23;20028;-91
2023/01/29 04:48:01;;;;;;;9.00;3.13;;;;;;;-146.73;100.00;56421.06;6209402;23;20470;-91
2023/01/29 04:50:43;;;;;;;11.18;3.58;;;;;;;-146.73;100.00;56421.06;6182602;23;20112;-91
2023/01/29 04:53:22;;;;;;;10.13;3.55;;;;;;;-146.73;100.00;56421.06;6182109;23;20020;-91
2023/01/29 04:55:59;;;;;;;8.35;3.40;;;;;;;-146.73;100.00;56421.06;6208365;23;20012;-91
2023/01/29 04:58:43;;;;;;;8.70;3.20;;;;;;;-146.73;100.00;56421.06;6183867;23;20015;-92
2023/01/29 05:01:13;;;;;;;9.60;4.05;;;;;;;-146.73;100.00;56421.06;6182628;23;20008;-91
2023/01/29 05:03:43;;;;;;;9.63;3.13;;;;;;;-146.73;100.00;56421.06;6208294;23;20025;-91
2023/01/29 05:06:11;;;;;;;9.60;3.58;;;;;;;-146.73;100.00;56421.06;6182233;23;20012;-91
2023/01/29 05:08:38;;;;;;;9.45;3.67;;;;;;;-146.73;100.00;56421.06;6182212;23;20008;-92
2023/01/29 05:11:04;;;;;;;8.85;3.30;;;;;;;-146.73;100.00;56421.06;6208273;23;20016;-92
2023/01/29 05:13:31;;;;;;;9.02;3.47;;;;;;;-146.73;100.00;56421.06;6183354;23;20078;-91
2023/01/29 05:16:04;;;;;;;9.60;3.33;;;;;;;-146.73;100.00;56421.06;6181999;23;20118;-91
2023/01/29 05:18:30;;;;;;;10.75;3.88;;;;;;;-146.73;100.00;56421.06;6182674;23;20020;-91
2023/01/29 05:21:00;;;;;;;10.23;3.13;;;;;;;-146.73;100.00;56421.06;6183706;23;20005;-91
2023/01/29 05:23:25;;;;;;;8.43;3.53;;;;;;;-146.73;100.00;56421.06;6184647;23;20027;-90
2023/01/29 05:25:51;;;;;;;8.43;3.35;;;;;;;-146.73;100.00;56421.06;6184185;23;20005;-91
2023/01/29 05:28:23;;;;;;;7.75;3.08;;;;;;;-146.73;100.00;56421.06;6184687;23;20031;-92
2023/01/29 05:30:54;;;;;;;8.00;3.03;;;;;;;-146.73;100.00;56421.06;6211738;23;20015;-92
2023/01/29 05:33:22;;;;;;;8.80;3.20;;;;;;;-146.73;100.00;56421.06;6184545;23;20079;-91
2023/01/29 05:35:48;;;;;;;9.35;3.10;;;;;;;-146.73;100.00;56421.06;6184173;23;20067;-91
2023/01/29 05:38:13;;;;;;;7.25;3.00;;;;;;;-146.73;100.00;56421.06;6185322;23;20019;-91
2023/01/29 05:40:39;;;;;;;8.45;3.33;;;;;;;-146.73;100.00;56421.06;6183422;23;20028;-92
2023/01/29 05:43:12;;;;;;;11.15;4.32;;;;;;;-146.73;100.00;56421.06;6184425;23;20058;-94
2023/01/29 05:45:38;;;;;;;9.63;3.95;;;;;;;-146.73;100.00;56421.06;6183481;23;20066;-93
2023/01/29 05:48:04;;;;;;;8.57;3.03;;;;;;;-146.73;100.00;56421.06;6182750;23;20016;-92
2023/01/29 05:50:29;;;;;;;9.15;3.30;;;;;;;-146.73;100.00;56421.06;6183511;23;20009;-92
2023/01/29 05:52:59;;;;;;;9.25;2.80;;;;;;;-146.73;100.00;56421.06;6183108;23;20078;-93
2023/01/29 05:55:24;;;;;;;7.03;2.63;;;;;;;-146.73;100.00;56421.06;6183798;23;20008;-93
2023/01/29 05:57:53;;;;;;;7.07;2.67;;;;;;;-146.73;100.00;56421.06;6185026;23;20009;-92
2023/01/29 06:00:18;;;;;;;8.23;2.80;;;;;;;-146.73;100.00;56421.06;6184297;23;20087;-94
2023/01/29 06:02:45;;;;;;;6.90;2.45;;;;;;;-146.73;100.00;56421.06;6182596;23;20028;-92
2023/01/29 06:05:10;;;;;;;10.70;2.50;;;;;;;-146.73;100.00;56421.06;6182451;23;20189;-92
2023/01/29 06:07:36;;;;;;;8.38;2.78;;;;;;;-146.73;100.00;56421.06;6183195;23;20377;-93
2023/01/29 06:10:02;;;;;;;9.23;3.15;;;;;;;-146.73;100.00;56421.06;6181723;23;20576;-92
2023/01/29 06:12:28;;;;;;;6.18;2.30;;;;;;;-146.73;100.00;56421.06;6209367;23;20004;-92
2023/01/29 06:14:53;;;;;;;11.02;3.03;;;;;;;-146.73;100.00;56421.06;6183633;23;20015;-93
2023/01/29 06:17:19;;;;;;;8.95;2.80;;;;;;;-146.73;100.00;56421.06;6184723;23;20044;-92
2023/01/29 06:19:44;;;;;;;9.38;2.55;;;;;;;-146.73;100.00;56421.06;6184522;23;20062;-92
2023/01/29 06:22:09;;;;;;;11.73;3.13;;;;;;;-146.73;100.00;56421.06;6183448;23;20174;-91
2023/01/29 06:24:35;;;;;;;10.57;3.45;;;;;;;-146.73;100.00;56421.06;6182887;23;20118;-92
2023/01/29 06:27:01;;;;;;;13.25;4.22;;;;;;;-146.73;100.00;56421.06;6182991;23;20317;-93
2023/01/29 06:29:26;;;;;;;13.45;4.28;;;;;;;-146.73;100.00;56421.06;6184566;23;20015;-92
2023/01/29 06:31:52;;;;;;;10.75;4.32;;;;;;;-146.73;100.00;56421.06;6209434;23;20453;-92
2023/01/29 06:34:17;;;;;;;27.42;5.22;;;;;;;-146.73;100.00;56421.06;6183403;23;20039;-92
2023/01/29 06:36:43;;;;;;;11.07;4.20;;;;;;;-146.73;100.00;56421.06;6184168;23;20016;-91
2023/01/29 06:39:09;;;;;;;11.73;3.97;;;;;;;-146.73;100.00;56421.06;6211071;23;20008;-92
2023/01/29 06:41:34;;;;;;;13.85;3.95;;;;;;;-146.73;100.00;56421.06;6183046;23;20142;-92
2023/01/29 06:44:00;;;;;;;11.30;5.30;;;;;;;-146.73;100.00;56421.06;6183997;23;20014;-92
2023/01/29 06:46:25;;;;;;;14.77;5.15;;;;;;;-146.73;100.00;56421.06;6184900;23;20205;-93
2023/01/29 06:48:57;;;;;;;11.07;4.05;;;;;;;-146.73;100.00;56421.06;6183916;23;20012;-93
2023/01/29 06:51:23;;;;;;;16.47;4.97;;;;;;;-146.73;100.00;56421.06;6183385;23;20047;-91
2023/01/29 06:53:49;;;;;;;10.63;4.35;;;;;;;-146.73;100.00;56421.06;6183536;23;20104;-91
2023/01/29 06:56:14;;;;;;;22.83;5.97;;;;;;;-146.73;100.00;56421.06;6210018;23;20031;-91
2023/01/29 06:58:40;;;;;;;15.98;5.55;;;;;;;-146.73;100.00;56421.06;6183831;23;20189;-92
2023/01/29 07:01:10;;;;;;;11.75;6.18;;;;;;;-146.73;100.00;56421.06;6182685;23;20042;-93
2023/01/29 07:03:36;;;;;;;14.55;5.50;;;;;;;-146.73;100.00;56421.06;6181669;23;20078;-92
2023/01/29 07:06:03;;;;;;;12.68;5.32;;;;;;;-146.73;100.00;56421.06;6210189;23;20008;-91
2023/01/29 07:08:30;;;;;;;15.63;6.18;;;;;;;-146.73;100.00;56421.06;6182726;23;20020;-92
2023/01/29 07:10:59;;;;;;;14.00;5.47;;;;;;;-146.73;100.00;56421.06;6183529;23;20012;-92
2023/01/29 07:13:25;;;;;;;11.40;5.18;;;;;;;-146.73;100.00;56421.06;6181712;23;20092;-93
2023/01/29 07:15:51;;;;;;;17.88;5.68;;;;;;;-146.73;100.00;56421.06;6209201;23;20020;-92
2023/01/29 07:18:16;;;;;;;10.68;4.18;;;;;;;-146.73;100.00;56421.06;6181864;23;20733;-92
2023/01/29 07:20:42;;;;;;;36.28;6.20;;;;;;;-146.73;100.00;56421.06;6182146;23;20018;-92
2023/01/29 07:23:10;;;;;;;8.55;3.55;;;;;;;-146.73;100.00;56421.06;6182332;23;20079;-92
2023/01/29 07:25:36;;;;;;;8.27;3.45;;;;;;;-146.73;100.00;56421.06;6181683;23;20070;-93
2023/01/29 07:28:02;;;;;;;11.88;2.97;;;;;;;-146.73;100.00;56421.06;6207288;23;20063;-93
2023/01/29 07:30:28;;;;;;;7.65;2.50;;;;;;;-146.73;100.00;56421.06;6181524;23;20036;-92
2023/01/29 07:32:54;;;;;;;8.23;2.20;;;;;;;-146.73;100.00;56421.06;6209207;23;20867;-93
2023/01/29 07:35:19;;;;;;;8.65;2.70;;;;;;;-146.73;100.00;56421.06;6183027;23;20012;-92
2023/01/29 07:37:48;;;;;;;7.72;2.60;;;;;;;-146.73;100.00;56421.06;6181774;23;20066;-92
2023/01/29 07:40:13;;;;;;;9.55;2.42;;;;;;;-146.73;100.00;56421.06;6181390;23;20018;-93
2023/01/29 07:42:41;;;;;;;7.45;2.28;;;;;;;-146.73;100.00;56421.06;6181940;23;20095;-93
2023/01/29 07:45:07;;;;;;;7.10;1.90;;;;;;;-146.73;100.00;56421.06;6208230;23;20635;-92
2023/01/29 07:47:33;;;;;;;7.47;1.60;;;;;;;-146.73;100.00;56421.06;6181677;23;20001;-91
2023/01/29 07:49:58;;;;;;;6.88;1.77;;;;;;;-146.73;100.00;56421.06;6183165;23;20011;-92
2023/01/29 07:52:24;;;;;;;7.28;1.30;;;;;;;-146.73;100.00;56421.06;6183240;23;20016;-91
2023/01/29 07:54:49;;;;;;;8.50;1.55;;;;;;;-146.73;100.00;56421.06;6182827;23;20039;-93
2023/01/29 07:57:17;;;;;;;7.15;1.33;;;;;;;-146.73;100.00;56421.06;6182986;23;20094;-92
2023/01/29 07:59:42;;;;;;;6.03;1.30;;;;;;;-146.73;100.00;56421.06;6209687;23;20008;-92
2023/01/29 08:02:08;;;;;;;6.22;1.70;;;;;;;-146.73;100.00;56421.06;6184377;23;20014;-93
2023/01/29 08:04:37;;;;;;;5.95;1.52;;;;;;;-146.73;100.00;56421.06;6183771;23;20021;-92
2023/01/29 08:07:03;;;;;;;7.65;1.60;;;;;;;-146.73;100.00;56421.06;6182905;23;20047;-92
2023/01/29 08:09:37;;;;;;;7.22;1.80;;;;;;;-146.73;100.00;56421.06;6210569;23;20036;-92
2023/01/29 08:12:02;;;;;;;7.60;1.73;;;;;;;-146.73;100.00;56421.06;6184800;23;20068;-92
2023/01/29 08:14:28;;;;;;;7.35;1.85;;;;;;;-146.73;100.00;56421.06;6185667;23;20048;-93
2023/01/29 08:16:53;;;;;;;8.60;2.00;;;;;;;-146.73;100.00;56421.06;6185186;23;20346;-92
2023/01/29 08:19:19;;;;;;;8.85;2.30;;;;;;;-146.73;100.00;56421.06;6184219;23;20717;-91
2023/01/29 08:21:44;;;;;;;7.93;1.90;;;;;;;-146.73;100.00;56421.06;6184277;23;20505;-93
2023/01/29 08:24:10;;;;;;;8.63;2.13;;;;;;;-146.73;100.00;56421.06;6183018;23;20106;-92
2023/01/29 08:26:52;;;;;;;8.18;2.08;;;;;;;-146.73;100.00;56421.06;6183648;23;20020;-92
2023/01/29 08:29:18;;;;;;;9.55;2.17;;;;;;;-146.73;100.00;56421.06;6186561;23;20021;-94
2023/01/29 08:31:43;;;;;;;6.90;1.77;;;;;;;-146.73;100.00;56421.06;6183973;23;20332;-93
2023/01/29 08:34:09;;;;;;;6.88;1.80;;;;;;;-146.73;100.00;56421.06;6184667;23;20708;-94
2023/01/29 08:36:35;;;;;;;6.55;1.85;;;;;;;-146.73;100.00;56421.06;6184289;23;20743;-94
2023/01/29 08:39:00;;;;;;;7.90;2.17;;;;;;;-146.73;100.00;56421.06;6184453;23;20027;-92
2023/01/29 08:41:26;;;;;;;7.13;2.60;;;;;;;-146.73;100.00;56421.06;6184875;23;20660;-93
2023/01/29 08:43:54;;;;;;;9.98;2.35;;;;;;;-146.73;100.00;56421.06;6185723;23;20016;-94
2023/01/29 08:46:25;;;;;;;8.63;2.47;;;;;;;-146.73;100.00;56421.06;6184480;23;20024;-93
2023/01/29 08:48:51;;;;;;;7.28;2.50;;;;;;;-146.73;100.00;56421.06;6185534;23;20020;-93
2023/01/29 08:51:20;;;;;;;8.93;2.30;;;;;;;-146.73;100.00;56421.06;6185967;23;20001;-94
2023/01/29 08:53:59;;;;;;;7.25;2.33;;;;;;;-146.73;100.00;56421.06;6185688;23;20013;-94
2023/01/29 08:56:26;;;;;;;8.30;2.40;;;;;;;-146.73;100.00;56421.06;6187428;23;20418;-93
2023/01/29 08:58:53;;;;;;;8.85;2.58;;;;;;;-146.73;100.00;56421.06;6185682;23;20032;-93
2023/01/29 09:01:19;;;;;;;7.63;2.40;;;;;;;-146.73;100.00;56421.06;6213202;23;20019;-92
2023/01/29 09:03:45;;;;;;;8.45;2.75;;;;;;;-146.73;100.00;56421.06;6211558;23;20516;-93
2023/01/29 09:06:12;;;;;;;8.48;2.40;;;;;;;-146.73;100.00;56421.06;6185433;23;20020;-92
2023/01/29 09:08:38;;;;;;;6.63;2.10;;;;;;;-146.73;100.00;56421.06;6185373;23;20151;-92
2023/01/29 09:11:06;;;;;;;5.80;2.08;;;;;;;-146.73;100.00;56421.06;6184482;23;20027;-92
2023/01/29 09:13:31;;;;;;;5.68;1.80;;;;;;;-146.73;100.00;56421.06;6186752;23;20008;-94
2023/01/29 09:16:01;;;;;;;6.15;1.50;;;;;;;-146.73;100.00;56421.06;6185527;23;20095;-94
2023/01/29 09:18:29;;;;;;;6.68;1.60;;;;;;;-146.73;100.00;56421.06;6184944;23;20016;-93
2023/01/29 09:20:55;;;;;;;7.78;1.88;;;;;;;-146.73;100.00;56421.06;6185536;23;20100;-95
2023/01/29 09:23:29;;;;;;;7.05;1.50;;;;;;;-146.73;100.00;56421.06;6186067;23;20052;-95
2023/01/29 09:25:55;;;;;;;7.35;1.98;;;;;;;-146.73;100.00;56421.06;6186274;23;20004;-94
2023/01/29 09:28:21;;;;;;;7.32;2.03;;;;;;;-146.73;100.00;56421.06;6187034;23;20044;-93
2023/01/29 09:30:46;;;;;;;7.35;2.10;;;;;;;-146.73;100.00;56421.06;6187382;23;20036;-92
2023/01/29 09:33:12;;;;;;;7.40;2.17;;;;;;;-146.73;100.00;56421.06;6187365;23;20024;-94
2023/01/29 09:35:40;;;;;;;8.40;2.33;;;;;;;-146.73;100.00;56421.06;6186354;23;20013;-92
2023/01/29 09:38:06;;;;;;;6.78;2.25;;;;;;;-146.73;100.00;56421.06;6187702;23;20016;-94
2023/01/29 09:40:56;;;;;;;8.18;2.40;;;;;;;-146.73;100.00;56421.06;6214539;23;20020;-94
2023/01/29 09:43:25;;;;;;;7.72;2.30;;;;;;;-146.73;100.00;56421.06;6191050;23;20031;-94
2023/01/29 09:46:12;;;;;;;8.75;2.67;;;;;;;-146.73;100.00;56421.06;6191986;23;20009;-95
2023/01/29 09:48:38;;;;;;;7.20;2.60;;;;;;;-146.73;100.00;56421.06;6186386;23;20028;-93
2023/01/29 09:51:14;;;;;;;8.13;2.60;;;;;;;-146.73;100.00;56421.06;6188964;23;20031;-94
2023/01/29 09:53:45;;;;;;;10.20;2.47;;;;;;;-146.73;100.00;56421.06;6187534;23;20434;-93
2023/01/29 09:56:15;;;;;;;7.55;2.45;;;;;;;-146.73;100.00;56421.06;6181010;23;20011;-92
2023/01/29 09:58:42;;;;;;;10.52;2.35;;;;;;;-146.73;100.00;56421.06;6209105;23;20043;-92
2023/01/29 10:01:29;;;;;;;7.35;2.28;;;;;;;-146.73;100.00;56421.06;6182490;23;20016;-95
2023/01/29 10:04:26;;;;;;;8.05;2.17;;;;;;;-146.73;100.00;56421.06;6175076;23;20025;-93
2023/01/29 10:07:14;;;;;;;8.85;2.33;;;;;;;-146.73;100.00;56421.06;6176225;23;20446;-93
2023/01/29 10:09:40;;;;;;;6.10;2.20;;;;;;;-146.73;100.00;56421.06;6174822;23;20634;-92
2023/01/29 10:12:16;;;;;;;7.13;2.50;;;;;;;-146.73;100.00;56421.06;6175001;23;20013;-92
2023/01/29 10:14:56;;;;;;;8.05;2.78;;;;;;;-146.73;100.00;56421.06;6175535;23;20718;-93
2023/01/29 10:17:35;;;;;;;7.38;2.63;;;;;;;-146.73;100.00;56421.06;6175378;23;20040;-92
2023/01/29 10:20:30;;;;;;;9.75;2.40;;;;;;;-146.73;100.00;56421.06;6175038;23;20076;-92
2023/01/29 10:23:25;;;;;;;7.30;1.98;;;;;;;-146.73;100.00;56421.06;6174292;23;20056;-93
2023/01/29 10:25:52;;;;;;;6.70;1.95;;;;;;;-146.73;100.00;56421.06;6167721;23;20028;-91
2023/01/29 10:28:38;;;;;;;9.75;2.22;;;;;;;-146.73;100.00;56421.06;6174552;23;20071;-93
2023/01/29 10:31:11;;;;;;;7.03;2.00;;;;;;;-146.73;100.00;56421.06;6175741;23;20443;-91
2023/01/29 10:33:42;;;;;;;5.78;1.80;;;;;;;-146.73;100.00;56421.06;6175725;23;20031;-93
2023/01/29 10:36:16;;;;;;;6.00;1.52;;;;;;;-146.73;100.00;56421.06;6176328;23;20029;-93
2023/01/29 10:38:52;;;;;;;9.13;1.65;;;;;;;-146.73;100.00;56421.06;6175166;23;20025;-91
2023/01/29 10:41:49;;;;;;;5.65;1.90;;;;;;;-146.73;100.00;56421.06;6176368;23;20071;-93
2023/01/29 10:44:52;;;;;;;6.30;1.80;;;;;;;-146.73;100.00;56421.06;6152820;23;20009;-92
2023/01/29 10:47:58;;;;;;;8.13;1.75;;;;;;;-146.73;100.00;56421.06;6175958;23;20048;-93
2023/01/29 10:50:41;;;;;;;5.70;1.55;;;;;;;-146.73;100.00;56421.06;6118017;23;20037;-93
2023/01/29 10:53:16;;;;;;;5.32;1.50;;;;;;;-146.73;100.00;56421.06;6120104;23;20017;-91
2023/01/29 10:55:50;;;;;;;7.20;1.60;;;;;;;-146.73;100.00;56421.06;6122528;23;20013;-95
2023/01/29 10:58:27;;;;;;;6.00;1.42;;;;;;;-146.73;100.00;56421.06;6122587;23;20092;-94
2023/01/29 11:00:52;;;;;;;5.88;1.88;;;;;;;-146.73;100.00;56421.06;6124423;23;20340;-94
2023/01/29 11:03:22;;;;;;;6.85;1.50;;;;;;;-146.73;100.00;56421.06;6150289;23;20097;-94
2023/01/29 11:06:15;;;;;;;8.35;1.73;;;;;;;-146.73;100.00;56421.06;6150655;23;20092;-94
2023/01/29 11:09:02;;;;;;;7.13;1.98;;;;;;;-146.73;100.00;56421.06;6123995;23;20454;-94
2023/01/29 11:11:42;;;;;;;7.03;1.70;;;;;;;-146.73;100.00;56421.06;6123056;23;20045;-94
2023/01/29 11:14:15;;;;;;;8.15;1.70;;;;;;;-146.73;100.00;56421.06;6125340;23;20603;-94
2023/01/29 11:16:46;;;;;;;6.63;1.88;;;;;;;-146.73;100.00;56421.06;6151507;23;20020;-94
2023/01/29 11:19:41;;;;;;;10.85;1.88;;;;;;;-146.73;100.00;56421.06;6125502;23;20017;-92
2023/01/29 11:22:19;;;;;;;6.68;1.80;;;;;;;-146.73;100.00;56421.06;6119426;23;20017;-94
2023/01/29 11:24:46;;;;;;;7.88;2.80;;;;;;;-146.73;100.00;56421.06;6160611;23;20355;-94
2023/01/29 11:27:24;;;;;;;9.77;3.17;;;;;;;-146.73;100.00;56421.06;6178271;23;20005;-94
2023/01/29 11:29:51;;;;;;;11.07;3.47;;;;;;;-146.73;100.00;56421.06;6181654;23;20030;-94
2023/01/29 11:32:22;;;;;;;9.25;3.38;;;;;;;-146.73;100.00;56421.06;6179670;23;20017;-93
2023/01/29 11:35:23;;;;;;;8.35;3.40;;;;;;;-146.73;100.00;56421.06;6179944;23;20414;-94
2023/01/29 11:37:49;;;;;;;9.00;2.90;;;;;;;-146.73;100.00;56421.06;6179479;23;20009;-93
2023/01/29 11:40:17;;;;;;;6.70;2.90;;;;;;;-146.73;100.00;56421.06;6181053;23;20056;-93
2023/01/29 11:42:44;;;;;;;8.48;3.83;;;;;;;-146.73;100.00;56421.06;6180145;23;20304;-93
2023/01/29 11:45:18;;;;;;;9.40;4.18;;;;;;;-146.73;100.00;56421.06;6179130;23;20032;-95
2023/01/29 11:47:49;;;;;;;8.63;3.92;;;;;;;-146.73;100.00;56421.06;6180224;23;20489;-94
2023/01/29 11:50:30;;;;;;;8.23;3.47;;;;;;;-146.73;100.00;56421.06;6179182;23;20020;-94
2023/01/29 11:52:58;;;;;;;7.88;3.15;;;;;;;-146.73;100.00;56421.06;6180570;23;20090;-93
2023/01/29 11:55:30;;;;;;;11.10;2.97;;;;;;;-146.73;100.00;56421.06;6180311;23;20005;-94
2023/01/29 11:58:30;;;;;;;6.68;2.08;;;;;;;-146.73;100.00;56421.06;6181180;23;20087;-95